sensor_id;sensor_type;location;lat;lon;timestamp;pressure;altitude;pressure_sealevel;temperature;humidity
70304;BME280;57712;48.752;11.348;2023-04-15T00:01:09;96492.09;;;6.35;100.00
70304;BME280;57712;48.752;11.348;2023-04-15T00:03:36;96489.34;;;6.39;100.00
70304;BME280;57712;48.752;11.348;2023-04-15T00:06:03;96485.56;;;6.32;100.00
70304;BME280;57712;48.752;11.348;2023-04-15T00:08:29;96489.38;;;6.35;100.00
70304;BME280;57712;48.752;11.348;2023-04-15T00:10:56;96480.94;;;6.29;100.00
70304;BME280;57712;48.752;11.348;2023-04-15T00:13:28;96487.09;;;6.33;100.00
70304;BME280;57712;48.752;11.348;2023-04-15T00:15:55;96481.84;;;6.23;100.00
70304;BME280;57712;48.752;11.348;2023-04-15T00:18:22;96481.91;;;6.19;100.00
70304;BME280;57712;48.752;11.348;2023-04-15T00:20:49;96478.34;;;6.22;100.00
70304;BME280;57712;48.752;11.348;2023-04-15T00:23:15;96482.47;;;6.30;100.00
70304;BME280;57712;48.752;11.348;2023-04-15T00:25:42;96479.53;;;6.21;100.00
70304;BME280;57712;48.752;11.348;2023-04-15T00:28:09;96471.78;;;6.20;100.00
70304;BME280;57712;48.752;11.348;2023-04-15T00:30:35;96479.41;;;6.28;100.00
70304;BME280;57712;48.752;11.348;2023-04-15T00:33:02;96472.44;;;6.27;100.00
70304;BME280;57712;48.752;11.348;2023-04-15T00:35:29;96474.81;;;6.25;100.00
70304;BME280;57712;48.752;11.348;2023-04-15T00:37:58;96464.41;;;6.20;100.00
70304;BME280;57712;48.752;11.348;2023-04-15T00:40:25;96460.50;;;6.21;100.00
70304;BME280;57712;48.752;11.348;2023-04-15T00:42:53;96460.03;;;6.26;100.00
70304;BME280;57712;48.752;11.348;2023-04-15T00:45:20;96452.28;;;6.25;100.00
70304;BME280;57712;48.752;11.348;2023-04-15T00:47:46;96463.16;;;6.25;100.00
70304;BME280;57712;48.752;11.348;2023-04-15T00:50:13;96458.50;;;6.25;100.00
70304;BME280;57712;48.752;11.348;2023-04-15T00:52:40;96452.69;;;6.23;100.00
70304;BME280;57712;48.752;11.348;2023-04-15T00:55:08;96448.44;;;6.22;100.00
70304;BME280;57712;48.752;11.348;2023-04-15T00:57:35;96448.78;;;6.24;100.00
70304;BME280;57712;48.752;11.348;2023-04-15T01:00:02;96434.78;;;6.26;100.00
70304;BME280;57712;48.752;11.348;2023-04-15T01:02:30;96440.63;;;6.24;100.00
70304;BME280;57712;48.752;11.348;2023-04-15T01:04:59;96437.44;;;6.29;100.00
70304;BME280;57712;48.752;11.348;2023-04-15T01:07:27;96432.41;;;6.28;100.00
70304;BME280;57712;48.752;11.348;2023-04-15T01:09:54;96431.69;;;6.24;100.00
70304;BME280;57712;48.752;11.348;2023-04-15T01:12:21;96433.53;;;6.30;100.00
70304;BME280;57712;48.752;11.348;2023-04-15T01:14:48;96427.19;;;6.37;100.00
70304;BME280;57712;48.752;11.348;2023-04-15T01:17:15;96432.56;;;6.41;100.00
70304;BME280;57712;48.752;11.348;2023-04-15T01:19:41;96444.97;;;6.42;100.00
70304;BME280;57712;48.752;11.348;2023-04-15T01:22:08;96445.09;;;6.34;100.00
70304;BME280;57712;48.752;11.348;2023-04-15T01:24:35;96435.75;;;6.35;100.00
70304;BME280;57712;48.752;11.348;2023-04-15T01:27:06;96441.16;;;6.39;100.00
70304;BME280;57712;48.752;11.348;2023-04-15T01:29:37;96430.69;;;6.38;100.00
70304;BME280;57712;48.752;11.348;2023-04-15T01:32:03;96433.00;;;6.39;100.00
70304;BME280;57712;48.752;11.348;2023-04-15T01:34:31;96433.97;;;6.49;100.00
70304;BME280;57712;48.752;11.348;2023-04-15T01:37:00;96427.47;;;6.43;100.00
70304;BME280;57712;48.752;11.348;2023-04-15T01:39:27;96422.03;;;6.43;100.00
70304;BME280;57712;48.752;11.348;2023-04-15T01:41:54;96430.31;;;6.35;100.00
70304;BME280;57712;48.752;11.348;2023-04-15T01:44:20;96419.59;;;6.28;100.00
70304;BME280;57712;48.752;11.348;2023-04-15T01:46:48;96415.56;;;6.36;100.00
70304;BME280;57712;48.752;11.348;2023-04-15T01:49:14;96423.50;;;6.27;100.00
70304;BME280;57712;48.752;11.348;2023-04-15T01:51:41;96422.56;;;6.34;100.00
70304;BME280;57712;48.752;11.348;2023-04-15T01:54:08;96418.41;;;6.29;100.00
70304;BME280;57712;48.752;11.348;2023-04-15T01:56:34;96427.78;;;6.25;100.00
70304;BME280;57712;48.752;11.348;2023-04-15T01:59:01;96431.66;;;6.27;100.00
70304;BME280;57712;48.752;11.348;2023-04-15T02:01:29;96434.41;;;6.24;100.00
70304;BME280;57712;48.752;11.348;2023-04-15T02:03:56;96440.09;;;6.33;100.00
70304;BME280;57712;48.752;11.348;2023-04-15T02:06:22;96444.75;;;6.32;100.00
70304;BME280;57712;48.752;11.348;2023-04-15T02:08:49;96438.13;;;6.33;100.00
70304;BME280;57712;48.752;11.348;2023-04-15T02:11:16;96445.94;;;6.31;100.00
70304;BME280;57712;48.752;11.348;2023-04-15T02:13:42;96447.44;;;6.36;100.00
70304;BME280;57712;48.752;11.348;2023-04-15T02:16:16;96442.88;;;6.29;100.00
70304;BME280;57712;48.752;11.348;2023-04-15T02:18:45;96447.44;;;6.36;100.00
70304;BME280;57712;48.752;11.348;2023-04-15T02:21:12;96451.38;;;6.31;100.00
70304;BME280;57712;48.752;11.348;2023-04-15T02:23:40;96458.00;;;6.30;100.00
70304;BME280;57712;48.752;11.348;2023-04-15T02:26:06;96454.78;;;6.35;100.00
70304;BME280;57712;48.752;11.348;2023-04-15T02:28:33;96455.16;;;6.38;100.00
70304;BME280;57712;48.752;11.348;2023-04-15T02:31:04;96457.50;;;6.35;100.00
70304;BME280;57712;48.752;11.348;2023-04-15T02:33:32;96452.06;;;6.35;100.00
70304;BME280;57712;48.752;11.348;2023-04-15T02:35:58;96452.56;;;6.30;100.00
70304;BME280;57712;48.752;11.348;2023-04-15T02:38:25;96455.22;;;6.34;100.00
70304;BME280;57712;48.752;11.348;2023-04-15T02:40:51;96450.81;;;6.20;100.00
70304;BME280;57712;48.752;11.348;2023-04-15T02:43:18;96457.31;;;6.26;100.00
70304;BME280;57712;48.752;11.348;2023-04-15T02:45:45;96453.09;;;6.22;100.00
70304;BME280;57712;48.752;11.348;2023-04-15T02:48:12;96449.97;;;6.23;100.00
70304;BME280;57712;48.752;11.348;2023-04-15T02:50:39;96451.50;;;6.24;100.00
70304;BME280;57712;48.752;11.348;2023-04-15T02:53:06;96452.69;;;6.23;100.00
70304;BME280;57712;48.752;11.348;2023-04-15T02:55:33;96455.56;;;6.16;100.00
70304;BME280;57712;48.752;11.348;2023-04-15T02:58:00;96444.72;;;6.13;100.00
70304;BME280;57712;48.752;11.348;2023-04-15T03:00:27;96443.13;;;6.15;100.00
70304;BME280;57712;48.752;11.348;2023-04-15T03:02:59;96449.38;;;6.12;100.00
70304;BME280;57712;48.752;11.348;2023-04-15T03:05:26;96450.75;;;6.00;100.00
70304;BME280;57712;48.752;11.348;2023-04-15T03:07:53;96450.81;;;5.97;100.00
70304;BME280;57712;48.752;11.348;2023-04-15T03:10:20;96455.91;;;5.95;100.00
70304;BME280;57712;48.752;11.348;2023-04-15T03:12:47;96458.06;;;6.03;100.00
70304;BME280;57712;48.752;11.348;2023-04-15T03:15:14;96451.94;;;5.99;100.00
70304;BME280;57712;48.752;11.348;2023-04-15T03:17:41;96456.72;;;5.92;100.00
70304;BME280;57712;48.752;11.348;2023-04-15T03:20:07;96449.03;;;5.87;100.00
70304;BME280;57712;48.752;11.348;2023-04-15T03:22:35;96453.03;;;5.78;100.00
70304;BME280;57712;48.752;11.348;2023-04-15T03:25:01;96451.56;;;5.74;100.00
70304;BME280;57712;48.752;11.348;2023-04-15T03:27:28;96452.50;;;5.64;100.00
70304;BME280;57712;48.752;11.348;2023-04-15T03:29:55;96450.91;;;5.66;100.00
70304;BME280;57712;48.752;11.348;2023-04-15T03:32:22;96455.59;;;5.62;100.00
70304;BME280;57712;48.752;11.348;2023-04-15T03:34:49;96459.56;;;5.58;100.00
70304;BME280;57712;48.752;11.348;2023-04-15T03:37:15;96450.72;;;5.54;100.00
70304;BME280;57712;48.752;11.348;2023-04-15T03:39:42;96456.94;;;5.50;100.00
70304;BME280;57712;48.752;11.348;2023-04-15T03:42:09;96453.44;;;5.54;100.00
70304;BME280;57712;48.752;11.348;2023-04-15T03:44:36;96451.16;;;5.48;100.00
70304;BME280;57712;48.752;11.348;2023-04-15T03:47:03;96453.38;;;5.57;100.00
70304;BME280;57712;48.752;11.348;2023-04-15T03:49:30;96453.31;;;5.61;100.00
70304;BME280;57712;48.752;11.348;2023-04-15T03:51:56;96459.56;;;5.58;100.00
70304;BME280;57712;48.752;11.348;2023-04-15T03:54:23;96448.38;;;5.52;100.00
70304;BME280;57712;48.752;11.348;2023-04-15T03:56:50;96447.69;;;5.48;100.00
70304;BME280;57712;48.752;11.348;2023-04-15T03:59:16;96449.56;;;5.51;100.00
70304;BME280;57712;48.752;11.348;2023-04-15T04:01:43;96459.78;;;5.43;100.00
70304;BME280;57712;48.752;11.348;2023-04-15T04:04:10;96460.06;;;5.49;100.00
70304;BME280;57712;48.752;11.348;2023-04-15T04:06:37;96448.75;;;5.54;100.00
70304;BME280;57712;48.752;11.348;2023-04-15T04:09:03;96450.41;;;5.48;100.00
70304;BME280;57712;48.752;11.348;2023-04-15T04:11:30;96454.19;;;5.54;100.00
70304;BME280;57712;48.752;11.348;2023-04-15T04:13:57;96446.41;;;5.56;100.00
70304;BME280;57712;48.752;11.348;2023-04-15T04:16:23;96447.59;;;5.55;100.00
70304;BME280;57712;48.752;11.348;2023-04-15T04:18:51;96446.41;;;5.56;100.00
70304;BME280;57712;48.752;11.348;2023-04-15T04:21:17;96443.44;;;5.47;100.00
70304;BME280;57712;48.752;11.348;2023-04-15T04:23:44;96443.06;;;5.45;100.00
70304;BME280;57712;48.752;11.348;2023-04-15T04:26:11;96452.28;;;5.51;100.00
70304;BME280;57712;48.752;11.348;2023-04-15T04:28:37;96448.00;;;5.54;100.00
70304;BME280;57712;48.752;11.348;2023-04-15T04:31:07;96447.84;;;5.64;100.00
70304;BME280;57712;48.752;11.348;2023-04-15T04:33:33;96446.28;;;5.63;100.00
70304;BME280;57712;48.752;11.348;2023-04-15T04:36:00;96444.28;;;5.67;100.00
70304;BME280;57712;48.752;11.348;2023-04-15T04:38:27;96450.56;;;5.64;100.00
70304;BME280;57712;48.752;11.348;2023-04-15T04:40:53;96453.72;;;5.59;100.00
70304;BME280;57712;48.752;11.348;2023-04-15T04:43:20;96449.00;;;5.63;100.00
70304;BME280;57712;48.752;11.348;2023-04-15T04:45:47;96450.91;;;5.66;100.00
70304;BME280;57712;48.752;11.348;2023-04-15T04:48:14;96453.97;;;5.68;100.00
70304;BME280;57712;48.752;11.348;2023-04-15T04:50:40;96453.56;;;5.70;100.00
70304;BME280;57712;48.752;11.348;2023-04-15T04:53:07;96461.25;;;5.75;100.00
70304;BME280;57712;48.752;11.348;2023-04-15T04:55:34;96463.91;;;5.78;100.00
70304;BME280;57712;48.752;11.348;2023-04-15T04:58:02;96459.66;;;5.77;100.00
70304;BME280;57712;48.752;11.348;2023-04-15T05:00:29;96458.41;;;5.82;100.00
70304;BME280;57712;48.752;11.348;2023-04-15T05:02:56;96459.03;;;5.93;100.00
70304;BME280;57712;48.752;11.348;2023-04-15T05:05:23;96453.53;;;5.97;100.00
70304;BME280;57712;48.752;11.348;2023-04-15T05:07:49;96452.72;;;6.00;100.00
70304;BME280;57712;48.752;11.348;2023-04-15T05:10:16;96455.91;;;5.95;100.00
70304;BME280;57712;48.752;11.348;2023-04-15T05:12:44;96462.72;;;6.06;100.00
70304;BME280;57712;48.752;11.348;2023-04-15T05:15:11;96456.50;;;6.06;100.00
70304;BME280;57712;48.752;11.348;2023-04-15T05:17:37;96459.91;;;6.10;100.00
70304;BME280;57712;48.752;11.348;2023-04-15T05:20:04;96465.69;;;6.12;100.00
70304;BME280;57712;48.752;11.348;2023-04-15T05:22:31;96463.34;;;6.14;100.00
70304;BME280;57712;48.752;11.348;2023-04-15T05:24:58;96466.97;;;6.07;100.00
70304;BME280;57712;48.752;11.348;2023-04-15T05:27:25;96468.19;;;6.03;100.00
70304;BME280;57712;48.752;11.348;2023-04-15T05:29:51;96461.16;;;6.05;100.00
70304;BME280;57712;48.752;11.348;2023-04-15T05:32:18;96467.19;;;6.17;100.00
70304;BME280;57712;48.752;11.348;2023-04-15T05:34:45;96465.69;;;6.12;100.00
70304;BME280;57712;48.752;11.348;2023-04-15T05:37:12;96471.72;;;6.23;100.00
70304;BME280;57712;48.752;11.348;2023-04-15T05:39:38;96479.53;;;6.21;100.00
70304;BME280;57712;48.752;11.348;2023-04-15T05:42:05;96474.09;;;6.21;100.00
70304;BME280;57712;48.752;11.348;2023-04-15T05:44:32;96480.19;;;6.29;100.00
70304;BME280;57712;48.752;11.348;2023-04-15T05:46:59;96476.41;;;6.23;100.00
70304;BME280;57712;48.752;11.348;2023-04-15T05:49:26;96487.81;;;6.38;100.00
70304;BME280;57712;48.752;11.348;2023-04-15T05:51:52;96481.78;;;6.26;100.00
70304;BME280;57712;48.752;11.348;2023-04-15T05:54:19;96479.09;;;6.23;100.00
70304;BME280;57712;48.752;11.348;2023-04-15T05:56:48;96471.09;;;6.16;100.00
70304;BME280;57712;48.752;11.348;2023-04-15T05:59:16;96470.31;;;6.15;100.00
70304;BME280;57712;48.752;11.348;2023-04-15T06:01:42;96473.09;;;6.12;100.00
70304;BME280;57712;48.752;11.348;2023-04-15T06:04:09;96484.72;;;6.12;100.00
70304;BME280;57712;48.752;11.348;2023-04-15T06:06:37;96469.50;;;6.18;100.00
70304;BME280;57712;48.752;11.348;2023-04-15T06:09:03;96474.19;;;6.14;100.00
70304;BME280;57712;48.752;11.348;2023-04-15T06:11:32;96475.63;;;6.22;100.00
70304;BME280;57712;48.752;11.348;2023-04-15T06:13:59;96479.47;;;6.25;100.00
70304;BME280;57712;48.752;11.348;2023-04-15T06:16:25;96475.63;;;6.22;100.00
70304;BME280;57712;48.752;11.348;2023-04-15T06:18:52;96479.75;;;6.30;100.00
70304;BME280;57712;48.752;11.348;2023-04-15T06:21:19;96481.88;;;6.43;100.00
70304;BME280;57712;48.752;11.348;2023-04-15T06:23:46;96475.13;;;6.51;100.00
70304;BME280;57712;48.752;11.348;2023-04-15T06:26:12;96470.53;;;6.48;100.00
70304;BME280;57712;48.752;11.348;2023-04-15T06:28:39;96475.78;;;6.58;100.00
70304;BME280;57712;48.752;11.348;2023-04-15T06:31:06;96473.66;;;6.66;100.00
70304;BME280;57712;48.752;11.348;2023-04-15T06:33:32;96475.56;;;6.89;100.00
70304;BME280;57712;48.752;11.348;2023-04-15T06:35:59;96478.22;;;6.92;100.00
70304;BME280;57712;48.752;11.348;2023-04-15T06:38:26;96480.28;;;7.05;100.00
70304;BME280;57712;48.752;11.348;2023-04-15T06:40:52;96481.00;;;7.09;100.00
70304;BME280;57712;48.752;11.348;2023-04-15T06:43:19;96471.69;;;7.06;100.00
70304;BME280;57712;48.752;11.348;2023-04-15T06:45:46;96479.31;;;7.15;100.00
70304;BME280;57712;48.752;11.348;2023-04-15T06:48:13;96479.00;;;7.29;100.00
70304;BME280;57712;48.752;11.348;2023-04-15T06:50:39;96479.03;;;7.45;100.00
70304;BME280;57712;48.752;11.348;2023-04-15T06:53:06;96481.63;;;7.52;100.00
70304;BME280;57712;48.752;11.348;2023-04-15T06:55:33;96482.81;;;7.68;100.00
70304;BME280;57712;48.752;11.348;2023-04-15T06:57:59;96475.50;;;7.81;100.00
70304;BME280;57712;48.752;11.348;2023-04-15T07:00:26;96480.88;;;7.85;100.00
70304;BME280;57712;48.752;11.348;2023-04-15T07:02:54;96481.63;;;8.01;100.00
70304;BME280;57712;48.752;11.348;2023-04-15T07:05:21;96477.03;;;8.15;100.00
70304;BME280;57712;48.752;11.348;2023-04-15T07:07:47;96474.81;;;8.09;100.00
70304;BME280;57712;48.752;11.348;2023-04-15T07:10:16;96475.59;;;8.10;100.00
70304;BME280;57712;48.752;11.348;2023-04-15T07:12:42;96476.84;;;8.22;100.00
70304;BME280;57712;48.752;11.348;2023-04-15T07:15:09;96480.09;;;8.17;100.00
70304;BME280;57712;48.752;11.348;2023-04-15T07:17:36;96473.44;;;8.18;100.00
70304;BME280;57712;48.752;11.348;2023-04-15T07:20:03;96477.72;;;8.19;100.00
70304;BME280;57712;48.752;11.348;2023-04-15T07:22:30;96477.09;;;8.27;100.00
70304;BME280;57712;48.752;11.348;2023-04-15T07:24:57;96478.75;;;8.25;100.00
70304;BME280;57712;48.752;11.348;2023-04-15T07:27:23;96479.75;;;8.31;100.00
70304;BME280;57712;48.752;11.348;2023-04-15T07:29:50;96485.19;;;8.31;100.00
70304;BME280;57712;48.752;11.348;2023-04-15T07:32:18;96477.63;;;8.38;100.00
70304;BME280;57712;48.752;11.348;2023-04-15T07:34:45;96478.56;;;8.48;100.00
70304;BME280;57712;48.752;11.348;2023-04-15T07:37:11;96476.00;;;8.41;100.00
70304;BME280;57712;48.752;11.348;2023-04-15T07:39:39;96480.25;;;8.42;100.00
70304;BME280;57712;48.752;11.348;2023-04-15T07:42:06;96471.63;;;8.44;100.00
70304;BME280;57712;48.752;11.348;2023-04-15T07:44:32;96472.91;;;8.55;100.00
70304;BME280;57712;48.752;11.348;2023-04-15T07:47:01;96464.75;;;8.39;100.00
70304;BME280;57712;48.752;11.348;2023-04-15T07:49:28;96467.06;;;8.24;100.00
70304;BME280;57712;48.752;11.348;2023-04-15T07:51:54;96462.81;;;8.23;100.00
70304;BME280;57712;48.752;11.348;2023-04-15T07:54:23;96468.44;;;8.16;100.00
70304;BME280;57712;48.752;11.348;2023-04-15T07:56:49;96470.03;;;8.30;100.00
70304;BME280;57712;48.752;11.348;2023-04-15T07:59:16;96475.50;;;8.14;100.00
70304;BME280;57712;48.752;11.348;2023-04-15T08:01:43;96461.34;;;8.19;100.00
70304;BME280;57712;48.752;11.348;2023-04-15T08:04:10;96470.41;;;8.16;100.00
70304;BME280;57712;48.752;11.348;2023-04-15T08:06:37;96470.22;;;8.06;100.00
70304;BME280;57712;48.752;11.348;2023-04-15T08:09:05;96471.25;;;7.96;100.00
70304;BME280;57712;48.752;11.348;2023-04-15T08:11:33;96468.00;;;8.01;100.00
70304;BME280;57712;48.752;11.348;2023-04-15T08:14:00;96462.38;;;7.76;100.00
70304;BME280;57712;48.752;11.348;2023-04-15T08:16:27;96473.66;;;7.94;100.00
70304;BME280;57712;48.752;11.348;2023-04-15T08:18:55;96470.91;;;7.94;100.00
70304;BME280;57712;48.752;11.348;2023-04-15T08:21:22;96470.56;;;8.25;100.00
70304;BME280;57712;48.752;11.348;2023-04-15T08:23:50;96472.34;;;8.15;100.00
70304;BME280;57712;48.752;11.348;2023-04-15T08:26:18;96472.94;;;8.06;100.00
70304;BME280;57712;48.752;11.348;2023-04-15T08:28:47;96472.53;;;8.08;100.00
70304;BME280;57712;48.752;11.348;2023-04-15T08:31:15;96480.50;;;8.31;100.00
70304;BME280;57712;48.752;11.348;2023-04-15T08:33:42;96473.59;;;8.43;100.00
70304;BME280;57712;48.752;11.348;2023-04-15T08:36:09;96481.13;;;8.39;100.00
70304;BME280;57712;48.752;11.348;2023-04-15T08:38:36;96478.13;;;8.50;100.00
70304;BME280;57712;48.752;11.348;2023-04-15T08:41:06;96486.22;;;8.21;100.00
70304;BME280;57712;48.752;11.348;2023-04-15T08:43:45;96482.81;;;8.33;100.00
70304;BME280;57712;48.752;11.348;2023-04-15T08:46:14;96486.19;;;8.53;100.00
70304;BME280;57712;48.752;11.348;2023-04-15T08:48:41;96486.69;;;8.64;100.00
70304;BME280;57712;48.752;11.348;2023-04-15T08:51:08;96492.16;;;8.64;100.00
70304;BME280;57712;48.752;11.348;2023-04-15T08:53:36;96478.06;;;8.95;100.00
70304;BME280;57712;48.752;11.348;2023-04-15T08:56:04;96483.06;;;8.84;100.00
70304;BME280;57712;48.752;11.348;2023-04-15T08:58:32;96487.72;;;9.12;100.00
70304;BME280;57712;48.752;11.348;2023-04-15T09:00:58;96485.72;;;9.00;100.00
70304;BME280;57712;48.752;11.348;2023-04-15T09:03:25;96480.69;;;9.40;100.00
70304;BME280;57712;48.752;11.348;2023-04-15T09:05:53;96485.50;;;9.49;100.00
70304;BME280;57712;48.752;11.348;2023-04-15T09:08:20;96479.91;;;9.65;100.00
70304;BME280;57712;48.752;11.348;2023-04-15T09:10:47;96483.66;;;9.71;100.00
70304;BME280;57712;48.752;11.348;2023-04-15T09:13:14;96480.22;;;10.05;100.00
70304;BME280;57712;48.752;11.348;2023-04-15T09:15:41;96477.72;;;10.11;100.00
70304;BME280;57712;48.752;11.348;2023-04-15T09:18:11;96470.78;;;10.32;100.00
70304;BME280;57712;48.752;11.348;2023-04-15T09:20:39;96492.25;;;10.68;100.00
70304;BME280;57712;48.752;11.348;2023-04-15T09:23:13;96484.34;;;10.70;100.00
70304;BME280;57712;48.752;11.348;2023-04-15T09:25:40;96499.41;;;10.87;100.00
70304;BME280;57712;48.752;11.348;2023-04-15T09:28:08;96494.53;;;11.13;100.00
70304;BME280;57712;48.752;11.348;2023-04-15T09:30:35;96492.72;;;10.88;100.00
70304;BME280;57712;48.752;11.348;2023-04-15T09:33:03;96490.03;;;10.97;100.00
70304;BME280;57712;48.752;11.348;2023-04-15T09:35:34;96495.91;;;11.09;100.00
70304;BME280;57712;48.752;11.348;2023-04-15T09:38:05;96492.53;;;11.26;100.00
70304;BME280;57712;48.752;11.348;2023-04-15T09:40:37;96486.56;;;10.62;100.00
70304;BME280;57712;48.752;11.348;2023-04-15T09:43:05;96492.78;;;10.76;100.00
70304;BME280;57712;48.752;11.348;2023-04-15T09:45:33;96494.94;;;10.81;100.00
70304;BME280;57712;48.752;11.348;2023-04-15T09:50:41;96490.94;;;10.60;100.00
70304;BME280;57712;48.752;11.348;2023-04-15T09:53:09;96492.63;;;10.79;100.00
70304;BME280;57712;48.752;11.348;2023-04-15T09:55:43;96489.25;;;10.40;100.00
70304;BME280;57712;48.752;11.348;2023-04-15T09:58:20;96490.94;;;10.60;100.00
70304;BME280;57712;48.752;11.348;2023-04-15T10:00:48;96498.84;;;10.58;100.00
70304;BME280;57712;48.752;11.348;2023-04-15T10:03:20;96495.63;;;10.37;100.00
70304;BME280;57712;48.752;11.348;2023-04-15T10:05:50;96500.25;;;10.15;100.00
70304;BME280;57712;48.752;11.348;2023-04-15T10:08:19;96503.09;;;10.24;100.00
70304;BME280;57712;48.752;11.348;2023-04-15T10:10:47;96505.59;;;10.06;100.00
70304;BME280;57712;48.752;11.348;2023-04-15T10:13:17;96493.69;;;10.25;100.00
70304;BME280;57712;48.752;11.348;2023-04-15T10:15:47;96499.03;;;10.16;100.00
70304;BME280;57712;48.752;11.348;2023-04-15T10:18:18;96499.00;;;10.41;100.00
70304;BME280;57712;48.752;11.348;2023-04-15T10:20:45;96493.66;;;10.38;100.00
70304;BME280;57712;48.752;11.348;2023-04-15T10:23:12;96495.78;;;10.56;100.00
70304;BME280;57712;48.752;11.348;2023-04-15T10:25:39;96497.16;;;10.38;100.00
70304;BME280;57712;48.752;11.348;2023-04-15T10:28:06;96492.69;;;10.32;100.00
70304;BME280;57712;48.752;11.348;2023-04-15T10:30:35;96498.13;;;10.19;100.00
70304;BME280;57712;48.752;11.348;2023-04-15T10:33:03;96500.56;;;10.17;100.00
70304;BME280;57712;48.752;11.348;2023-04-15T10:35:31;96504.50;;;10.16;100.00
70304;BME280;57712;48.752;11.348;2023-04-15T10:37:59;96506.50;;;10.03;100.00
70304;BME280;57712;48.752;11.348;2023-04-15T10:40:28;96508.63;;;10.21;100.00
70304;BME280;57712;48.752;11.348;2023-04-15T10:43:01;96513.94;;;10.28;100.00
70304;BME280;57712;48.752;11.348;2023-04-15T10:45:32;96510.41;;;10.15;100.00
70304;BME280;57712;48.752;11.348;2023-04-15T10:48:05;96510.88;;;10.26;100.00
70304;BME280;57712;48.752;11.348;2023-04-15T10:50:33;96519.28;;;10.31;100.00
70304;BME280;57712;48.752;11.348;2023-04-15T10:53:02;96506.78;;;10.30;100.00
70304;BME280;57712;48.752;11.348;2023-04-15T10:55:33;96514.69;;;10.28;100.00
70304;BME280;57712;48.752;11.348;2023-04-15T10:58:01;96511.84;;;10.32;100.00
70304;BME280;57712;48.752;11.348;2023-04-15T11:00:29;96509.63;;;10.39;100.00
70304;BME280;57712;48.752;11.348;2023-04-15T11:03:07;96515.34;;;10.32;100.00
70304;BME280;57712;48.752;11.348;2023-04-15T11:08:09;96521.47;;;10.36;100.00
70304;BME280;57712;48.752;11.348;2023-04-15T11:13:25;96521.03;;;10.38;100.00
70304;BME280;57712;48.752;11.348;2023-04-15T11:15:55;96512.81;;;10.38;100.00
70304;BME280;57712;48.752;11.348;2023-04-15T11:18:26;96533.50;;;10.39;100.00
70304;BME280;57712;48.752;11.348;2023-04-15T11:20:57;96525.41;;;10.35;100.00
70304;BME280;57712;48.752;11.348;2023-04-15T11:23:41;96536.69;;;10.37;100.00
70304;BME280;57712;48.752;11.348;2023-04-15T11:26:14;96532.97;;;10.44;100.00
70304;BME280;57712;48.752;11.348;2023-04-15T11:28:43;96537.66;;;10.44;100.00
70304;BME280;57712;48.752;11.348;2023-04-15T11:31:15;96539.28;;;10.41;100.00
70304;BME280;57712;48.752;11.348;2023-04-15T11:33:53;96532.19;;;10.31;100.00
70304;BME280;57712;48.752;11.348;2023-04-15T11:36:23;96532.28;;;10.53;100.00
70304;BME280;57712;48.752;11.348;2023-04-15T11:38:52;96540.31;;;10.34;100.00
70304;BME280;57712;48.752;11.348;2023-04-15T11:41:22;96538.66;;;10.37;100.00
70304;BME280;57712;48.752;11.348;2023-04-15T11:43:50;96540.25;;;10.60;100.00
70304;BME280;57712;48.752;11.348;2023-04-15T11:46:17;96542.88;;;10.63;100.00
70304;BME280;57712;48.752;11.348;2023-04-15T11:48:45;96545.63;;;10.51;100.00
70304;BME280;57712;48.752;11.348;2023-04-15T11:51:13;96555.16;;;10.59;100.00
70304;BME280;57712;48.752;11.348;2023-04-15T11:53:47;96561.34;;;10.72;100.00
70304;BME280;57712;48.752;11.348;2023-04-15T11:56:21;96569.50;;;10.50;100.00
70304;BME280;57712;48.752;11.348;2023-04-15T11:58:51;96558.69;;;10.47;100.00
70304;BME280;57712;48.752;11.348;2023-04-15T12:01:18;96567.25;;;10.23;100.00
70304;BME280;57712;48.752;11.348;2023-04-15T12:03:46;96568.84;;;10.21;100.00
70304;BME280;57712;48.752;11.348;2023-04-15T12:06:24;96574.44;;;10.17;100.00
70304;BME280;57712;48.752;11.348;2023-04-15T12:14:09;96597.31;;;9.85;100.00
70304;BME280;57712;48.752;11.348;2023-04-15T12:16:47;96589.66;;;9.80;100.00
70304;BME280;57712;48.752;11.348;2023-04-15T12:19:25;96608.00;;;9.67;100.00
70304;BME280;57712;48.752;11.348;2023-04-15T12:21:56;96608.50;;;9.49;100.00
70304;BME280;57712;48.752;11.348;2023-04-15T12:24:30;96615.84;;;9.52;100.00
70304;BME280;57712;48.752;11.348;2023-04-15T12:27:06;96623.94;;;9.26;100.00
70304;BME280;57712;48.752;11.348;2023-04-15T12:29:35;96629.03;;;9.12;100.00
70304;BME280;57712;48.752;11.348;2023-04-15T12:32:15;96630.44;;;9.16;100.00
70304;BME280;57712;48.752;11.348;2023-04-15T12:34:52;96637.81;;;9.19;100.00
70304;BME280;57712;48.752;11.348;2023-04-15T12:37:20;96635.88;;;9.04;100.00
70304;BME280;57712;48.752;11.348;2023-04-15T12:39:48;96641.09;;;8.98;100.00
70304;BME280;57712;48.752;11.348;2023-04-15T12:42:16;96649.63;;;9.00;100.00
70304;BME280;57712;48.752;11.348;2023-04-15T12:44:43;96647.41;;;8.95;100.00
70304;BME280;57712;48.752;11.348;2023-04-15T12:47:10;96649.28;;;8.98;100.00
70304;BME280;57712;48.752;11.348;2023-04-15T12:49:38;96652.28;;;8.87;100.00
70304;BME280;57712;48.752;11.348;2023-04-15T12:52:05;96654.31;;;9.00;100.00
70304;BME280;57712;48.752;11.348;2023-04-15T12:54:32;96661.63;;;9.19;100.00
70304;BME280;57712;48.752;11.348;2023-04-15T12:56:59;96661.91;;;9.08;100.00
70304;BME280;57712;48.752;11.348;2023-04-15T12:59:27;96660.97;;;8.99;100.00
70304;BME280;57712;48.752;11.348;2023-04-15T13:01:53;96671.81;;;8.70;100.00
70304;BME280;57712;48.752;11.348;2023-04-15T13:04:20;96659.00;;;8.83;100.00